createdAt,value
2022-09-15T00:00:53.362Z,99.90
2022-09-15T00:04:55.226Z,99.90
2022-09-15T00:08:57.107Z,99.90
2022-09-15T00:12:59.087Z,99.90
2022-09-15T00:17:00.996Z,99.90
2022-09-15T00:21:12.280Z,99.90
2022-09-15T00:25:15.267Z,99.90
2022-09-15T00:29:17.147Z,99.90
2022-09-15T00:33:20.683Z,99.90
2022-09-15T00:37:22.896Z,99.90
2022-09-15T00:41:25.354Z,99.90
2022-09-15T00:45:27.360Z,99.90
2022-09-15T00:49:35.609Z,99.90
2022-09-15T00:53:37.928Z,99.90
2022-09-15T00:57:50.959Z,99.90
2022-09-15T01:02:01.591Z,99.90
2022-09-15T01:06:15.630Z,99.90
2022-09-15T01:10:35.244Z,99.90
2022-09-15T01:14:37.282Z,99.90
2022-09-15T01:19:03.069Z,99.90
2022-09-15T01:23:27.281Z,99.90
2022-09-15T01:27:47.568Z,99.90
2022-09-15T01:32:16.064Z,99.90
2022-09-15T01:36:32.251Z,99.90
2022-09-15T01:40:41.039Z,99.90
2022-09-15T01:44:47.815Z,99.90
2022-09-15T01:48:52.233Z,99.90
2022-09-15T01:52:57.076Z,99.90
2022-09-15T01:56:59.163Z,99.90
2022-09-15T02:01:22.184Z,99.90
2022-09-15T02:05:40.122Z,99.90
2022-09-15T02:09:55.809Z,99.90
2022-09-15T02:14:12.430Z,99.90
2022-09-15T02:18:34.685Z,99.90
2022-09-15T02:22:41.000Z,99.90
2022-09-15T02:26:43.785Z,99.90
2022-09-15T02:30:48.602Z,99.90
2022-09-15T02:34:54.586Z,99.90
2022-09-15T02:39:03.644Z,99.90
2022-09-15T02:43:11.371Z,99.90
2022-09-15T02:47:13.551Z,99.90
2022-09-15T02:51:18.222Z,99.90
2022-09-15T02:55:20.094Z,99.90
2022-09-15T02:59:21.946Z,99.90
2022-09-15T03:03:24.447Z,99.90
2022-09-15T03:07:27.120Z,99.90
2022-09-15T03:11:30.239Z,99.90
2022-09-15T03:15:33.415Z,99.90
2022-09-15T03:19:35.322Z,99.90
2022-09-15T03:23:37.487Z,99.90
2022-09-15T03:27:40.070Z,99.90
2022-09-15T03:31:42.157Z,99.90
2022-09-15T03:35:46.550Z,99.90
2022-09-15T03:39:49.073Z,99.90
2022-09-15T03:43:52.107Z,99.90
2022-09-15T03:47:54.155Z,99.90
2022-09-15T03:51:56.672Z,99.90
2022-09-15T03:56:11.480Z,99.90
2022-09-15T04:00:14.183Z,99.90
2022-09-15T04:04:16.172Z,99.90
2022-09-15T04:08:18.038Z,99.90
2022-09-15T04:12:19.996Z,99.90
2022-09-15T04:16:23.960Z,99.90
2022-09-15T04:20:25.904Z,99.90
2022-09-15T04:24:27.919Z,99.90
2022-09-15T04:28:33.254Z,99.90
2022-09-15T04:32:35.779Z,99.90
2022-09-15T04:36:37.671Z,99.90
2022-09-15T04:40:39.528Z,99.90
2022-09-15T04:44:41.562Z,99.90
2022-09-15T04:48:45.557Z,99.90
2022-09-15T04:52:47.381Z,99.90
2022-09-15T04:56:49.489Z,99.90
2022-09-15T05:00:51.384Z,99.90
2022-09-15T05:04:53.263Z,99.90
2022-09-15T05:08:57.221Z,99.90
2022-09-15T05:12:59.391Z,99.90
2022-09-15T05:17:01.347Z,99.90
2022-09-15T05:21:05.338Z,99.90
2022-09-15T05:25:07.410Z,99.90
2022-09-15T05:29:09.307Z,99.90
2022-09-15T05:33:11.140Z,99.90
2022-09-15T05:37:13.125Z,99.90
2022-09-15T05:41:17.021Z,99.90
2022-09-15T05:45:18.908Z,99.90
2022-09-15T05:49:20.750Z,99.90
2022-09-15T05:53:24.041Z,99.90
2022-09-15T05:57:25.905Z,99.90
2022-09-15T06:01:29.986Z,99.90
2022-09-15T06:05:32.070Z,99.90
2022-09-15T06:09:34.753Z,99.90
2022-09-15T06:13:36.883Z,99.90
2022-09-15T06:17:39.899Z,99.90
2022-09-15T06:21:41.782Z,99.90
2022-09-15T06:25:43.667Z,99.90
2022-09-15T06:29:45.529Z,99.90
2022-09-15T06:33:51.501Z,99.90
2022-09-15T06:37:53.430Z,99.90
2022-09-15T06:42:04.789Z,99.90
2022-09-15T06:46:16.214Z,99.90
2022-09-15T06:50:18.176Z,99.90
2022-09-15T06:54:20.057Z,99.90
2022-09-15T06:58:21.912Z,99.90
2022-09-15T07:02:23.852Z,99.90
2022-09-15T07:06:29.793Z,99.90
2022-09-15T07:10:32.095Z,99.90
2022-09-15T07:14:34.120Z,99.90
2022-09-15T07:18:40.942Z,99.90
2022-09-15T07:22:44.822Z,99.90
2022-09-15T07:26:46.770Z,99.90
2022-09-15T07:30:50.976Z,99.90
2022-09-15T07:34:55.494Z,99.90
2022-09-15T07:39:00.092Z,99.90
2022-09-15T07:43:02.055Z,99.90
2022-09-15T07:47:03.980Z,99.90
2022-09-15T07:51:06.082Z,99.90
2022-09-15T07:55:09.361Z,99.90
2022-09-15T07:59:11.433Z,99.90
2022-09-15T08:03:14.206Z,99.90
2022-09-15T08:07:16.167Z,99.90
2022-09-15T08:11:19.965Z,99.90
2022-09-15T08:15:21.919Z,99.90
2022-09-15T08:19:23.798Z,99.90
2022-09-15T08:23:25.680Z,99.90
2022-09-15T08:27:27.577Z,99.90
2022-09-15T08:31:29.655Z,99.90
2022-09-15T08:35:32.615Z,99.90
2022-09-15T08:39:34.681Z,99.90
2022-09-15T08:43:43.161Z,99.90
2022-09-15T08:47:48.059Z,99.90
2022-09-15T08:51:52.141Z,99.90
2022-09-15T08:56:00.398Z,99.90
2022-09-15T09:00:02.579Z,99.90
2022-09-15T09:04:33.397Z,99.90
2022-09-15T09:08:44.659Z,99.90
2022-09-15T09:13:16.476Z,99.90
2022-09-15T09:17:33.482Z,99.90
2022-09-15T09:21:43.126Z,99.90
2022-09-15T09:25:45.776Z,99.90
2022-09-15T09:29:50.107Z,99.90
2022-09-15T09:34:18.410Z,99.90
2022-09-15T09:38:30.524Z,99.90
2022-09-15T09:42:37.227Z,99.90
2022-09-15T09:46:39.195Z,99.90
2022-09-15T09:50:44.526Z,99.90
2022-09-15T09:54:48.139Z,99.90
2022-09-15T09:58:50.195Z,99.90
2022-09-15T10:02:52.058Z,99.90
2022-09-15T10:06:56.562Z,99.90
2022-09-15T10:11:06.179Z,99.90
2022-09-15T10:15:24.370Z,99.90
2022-09-15T10:19:27.089Z,99.90
2022-09-15T10:23:33.100Z,99.90
2022-09-15T10:27:36.849Z,99.90
2022-09-15T10:31:39.174Z,99.90
2022-09-15T10:35:42.569Z,96.80
2022-09-15T10:39:53.923Z,94.70
2022-09-15T10:44:18.482Z,91.50
2022-09-15T10:48:32.080Z,91.20
2022-09-15T10:53:01.677Z,89.70
2022-09-15T10:57:35.115Z,90.50
2022-09-15T11:01:36.951Z,90.10
2022-09-15T11:05:48.653Z,83.80
2022-09-15T11:10:03.228Z,84.40
2022-09-15T11:14:29.897Z,80.50
2022-09-15T11:18:54.619Z,80.40
2022-09-15T11:23:19.051Z,82.10
2022-09-15T11:27:54.029Z,86.70
2022-09-15T11:32:15.655Z,84.80
2022-09-15T11:36:39.156Z,89.00
2022-09-15T11:41:14.169Z,89.60
2022-09-15T11:45:21.677Z,90.90
2022-09-15T11:49:25.463Z,90.50
2022-09-15T11:53:36.237Z,90.40
2022-09-15T11:57:50.550Z,90.70
2022-09-15T12:02:35.109Z,90.70
2022-09-15T12:06:45.780Z,89.30
2022-09-15T12:10:54.854Z,88.90
2022-09-15T12:14:58.026Z,89.10
2022-09-15T12:19:22.632Z,88.20
2022-09-15T12:23:32.958Z,89.90
2022-09-15T12:27:35.002Z,89.90
2022-09-15T12:31:39.105Z,87.00
2022-09-15T12:35:41.019Z,86.90
2022-09-15T12:39:47.186Z,86.90
2022-09-15T12:44:16.069Z,85.20
2022-09-15T12:48:36.687Z,84.30
2022-09-15T12:52:54.415Z,83.70
2022-09-15T12:56:57.518Z,83.90
2022-09-15T13:01:25.432Z,80.30
2022-09-15T13:05:42.116Z,81.10
2022-09-15T13:09:59.218Z,80.90
2022-09-15T13:14:03.758Z,82.60
2022-09-15T13:18:06.514Z,82.40
2022-09-15T13:22:11.404Z,82.40
2022-09-15T13:26:19.310Z,84.80
2022-09-15T13:30:24.330Z,84.40
2022-09-15T13:39:34.299Z,83.90
2022-09-15T13:43:59.370Z,81.20
2022-09-15T13:48:20.546Z,80.90
2022-09-15T13:53:06.922Z,80.20
2022-09-15T13:57:08.815Z,80.60
2022-09-15T14:01:12.357Z,80.60
2022-09-15T14:05:15.613Z,81.20
2022-09-15T14:09:30.069Z,80.70
2022-09-15T14:13:32.537Z,79.00
2022-09-15T14:17:45.265Z,79.30
2022-09-15T14:21:53.781Z,80.30
2022-09-15T14:26:02.916Z,80.30
2022-09-15T14:30:08.375Z,79.80
2022-09-15T14:34:24.888Z,80.00
2022-09-15T14:38:26.732Z,80.60
2022-09-15T14:42:40.055Z,81.80
2022-09-15T14:46:41.887Z,84.30
2022-09-15T14:50:46.471Z,86.30
2022-09-15T14:54:49.282Z,90.10
2022-09-15T14:58:53.229Z,91.60
2022-09-15T15:03:14.857Z,93.00
2022-09-15T15:07:30.910Z,94.30
2022-09-15T15:11:35.098Z,95.60
2022-09-15T15:15:38.609Z,94.50
2022-09-15T15:19:42.264Z,95.50
2022-09-15T15:23:47.235Z,95.10
2022-09-15T15:28:07.132Z,92.80
2022-09-15T15:32:20.462Z,94.40
2022-09-15T15:36:24.115Z,94.00
2022-09-15T15:40:26.175Z,95.10
2022-09-15T15:44:29.947Z,94.40
2022-09-15T15:48:37.865Z,97.20
2022-09-15T15:52:41.541Z,96.60
2022-09-15T15:56:43.469Z,99.50
2022-09-15T16:00:52.719Z,99.90
2022-09-15T16:04:55.049Z,99.90
2022-09-15T16:09:00.709Z,99.90
2022-09-15T16:13:02.566Z,98.80
2022-09-15T16:17:04.775Z,99.90
2022-09-15T16:21:07.330Z,99.90
2022-09-15T16:25:37.235Z,99.90
2022-09-15T16:29:39.082Z,99.90
2022-09-15T16:33:42.597Z,99.90
2022-09-15T16:37:44.490Z,99.90
2022-09-15T16:41:46.323Z,99.90
2022-09-15T16:45:49.220Z,99.90
2022-09-15T16:49:52.446Z,99.90
2022-09-15T16:53:54.361Z,99.90
2022-09-15T16:57:56.255Z,99.90
2022-09-15T17:01:58.159Z,99.90
2022-09-15T17:06:01.360Z,99.90
2022-09-15T17:10:03.434Z,99.90
2022-09-15T17:14:05.574Z,99.90
2022-09-15T17:18:10.025Z,99.90
2022-09-15T17:22:11.909Z,98.60
2022-09-15T17:26:21.249Z,98.10
2022-09-15T17:30:26.057Z,97.60
2022-09-15T17:34:27.949Z,97.50
2022-09-15T17:38:29.896Z,98.40
2022-09-15T17:42:31.889Z,98.80
2022-09-15T17:46:33.892Z,99.90
2022-09-15T17:50:38.182Z,99.90
2022-09-15T17:54:40.168Z,99.30
2022-09-15T17:58:42.687Z,99.90
2022-09-15T18:02:49.072Z,99.90
2022-09-15T18:06:50.966Z,99.90
2022-09-15T18:10:52.888Z,99.90
2022-09-15T18:14:54.747Z,99.90
2022-09-15T18:18:56.623Z,99.90
2022-09-15T18:23:00.345Z,99.90
2022-09-15T18:27:02.222Z,99.90
2022-09-15T18:31:04.203Z,99.90
2022-09-15T18:35:07.309Z,99.90
2022-09-15T18:39:11.993Z,99.90
2022-09-15T18:43:13.970Z,99.90
2022-09-15T18:47:15.839Z,99.90
2022-09-15T18:51:24.113Z,99.90
2022-09-15T18:55:31.400Z,99.90
2022-09-15T18:59:33.255Z,99.90
2022-09-15T19:03:35.405Z,99.90
2022-09-15T19:07:38.431Z,99.90
2022-09-15T19:11:40.268Z,99.90
2022-09-15T19:15:44.001Z,99.90
2022-09-15T19:19:46.516Z,99.90
2022-09-15T19:23:48.327Z,99.90
2022-09-15T19:27:50.581Z,99.90
2022-09-15T19:31:52.577Z,99.90
2022-09-15T19:36:10.886Z,99.90
2022-09-15T19:40:17.578Z,99.90
2022-09-15T19:44:19.546Z,99.90
2022-09-15T19:48:21.461Z,99.90
2022-09-15T19:52:23.363Z,99.90
2022-09-15T19:56:26.760Z,99.90
2022-09-15T20:00:28.629Z,99.90
2022-09-15T20:04:30.857Z,99.90
2022-09-15T20:08:32.930Z,99.90
2022-09-15T20:12:34.811Z,99.90
2022-09-15T20:16:36.814Z,99.90
2022-09-15T20:20:40.172Z,99.90
2022-09-15T20:24:42.070Z,99.90
2022-09-15T20:28:45.113Z,99.90
2022-09-15T20:32:47.505Z,99.90
2022-09-15T20:36:49.428Z,99.90
2022-09-15T20:40:54.971Z,99.90
2022-09-15T20:44:56.850Z,99.90
2022-09-15T20:48:58.723Z,99.90
2022-09-15T20:53:00.737Z,99.90
2022-09-15T20:57:02.680Z,99.90
2022-09-15T21:01:13.945Z,99.90
2022-09-15T21:05:15.881Z,99.90
2022-09-15T21:09:17.981Z,99.90
2022-09-15T21:13:19.929Z,99.90
2022-09-15T21:17:23.178Z,99.90
2022-09-15T21:21:27.588Z,99.90
2022-09-15T21:25:29.439Z,99.90
2022-09-15T21:29:31.611Z,99.90
2022-09-15T21:33:33.925Z,99.90
2022-09-15T21:37:35.874Z,99.90
2022-09-15T21:41:38.314Z,99.90
2022-09-15T21:45:40.259Z,99.90
2022-09-15T21:49:42.312Z,99.90
2022-09-15T21:53:44.179Z,99.90
2022-09-15T21:57:46.165Z,99.90
2022-09-15T22:01:48.681Z,99.90
2022-09-15T22:05:51.894Z,99.90
2022-09-15T22:09:53.934Z,99.90
2022-09-15T22:13:55.893Z,99.90
2022-09-15T22:17:57.853Z,99.90
2022-09-15T22:21:59.690Z,99.90
2022-09-15T22:26:03.859Z,99.90
2022-09-15T22:30:06.291Z,99.90
2022-09-15T22:34:08.143Z,99.90
2022-09-15T22:38:10.064Z,99.90
2022-09-15T22:42:11.911Z,99.90
2022-09-15T22:46:15.192Z,99.90
2022-09-15T22:50:17.144Z,99.90
2022-09-15T22:54:19.107Z,99.90
2022-09-15T22:58:21.166Z,99.90
2022-09-15T23:02:23.200Z,99.90
2022-09-15T23:06:27.119Z,99.90
2022-09-15T23:10:30.873Z,99.90
2022-09-15T23:14:32.748Z,99.90
2022-09-15T23:18:35.186Z,99.90
2022-09-15T23:22:37.565Z,99.90
2022-09-15T23:26:39.783Z,99.90
2022-09-15T23:30:41.635Z,99.90
2022-09-15T23:34:43.664Z,99.90
2022-09-15T23:38:46.900Z,99.90
2022-09-15T23:42:48.841Z,99.90
2022-09-15T23:46:50.778Z,99.90
2022-09-15T23:50:52.909Z,99.90
2022-09-15T23:54:54.783Z,99.90
2022-09-15T23:58:56.666Z,99.90
